sensor_id;sensor_type;location;lat;lon;timestamp;P1;durP1;ratioP1;P2;durP2;ratioP2
41964;SDS011;50120;53.250;8.702;2022-09-09T00:01:52;57.40;;;15.27;;
41964;SDS011;50120;53.250;8.702;2022-09-09T00:09:45;43.13;;;18.58;;
41964;SDS011;50120;53.250;8.702;2022-09-09T00:12:18;47.72;;;19.90;;
41964;SDS011;50120;53.250;8.702;2022-09-09T00:15:07;72.20;;;22.25;;
41964;SDS011;50120;53.250;8.702;2022-09-09T00:20:19;50.90;;;21.05;;
41964;SDS011;50120;53.250;8.702;2022-09-09T00:25:29;110.38;;;21.25;;
41964;SDS011;50120;53.250;8.702;2022-09-09T00:28:18;43.65;;;19.20;;
41964;SDS011;50120;53.250;8.702;2022-09-09T00:30:47;52.90;;;18.10;;
41964;SDS011;50120;53.250;8.702;2022-09-09T00:33:14;44.28;;;17.27;;
41964;SDS011;50120;53.250;8.702;2022-09-09T00:35:48;43.80;;;19.77;;
41964;SDS011;50120;53.250;8.702;2022-09-09T00:40:58;61.10;;;20.52;;
41964;SDS011;50120;53.250;8.702;2022-09-09T00:48:51;93.25;;;19.38;;
41964;SDS011;50120;53.250;8.702;2022-09-09T00:57:14;58.17;;;15.40;;
41964;SDS011;50120;53.250;8.702;2022-09-09T00:59:53;55.40;;;17.75;;
41964;SDS011;50120;53.250;8.702;2022-09-09T01:02:33;141.45;;;20.48;;
41964;SDS011;50120;53.250;8.702;2022-09-09T01:05:13;52.42;;;19.15;;
41964;SDS011;50120;53.250;8.702;2022-09-09T01:07:51;69.15;;;17.42;;
41964;SDS011;50120;53.250;8.702;2022-09-09T01:10:24;78.25;;;19.50;;
41964;SDS011;50120;53.250;8.702;2022-09-09T01:13:08;45.70;;;17.98;;
41964;SDS011;50120;53.250;8.702;2022-09-09T01:15:41;55.97;;;18.45;;
41964;SDS011;50120;53.250;8.702;2022-09-09T01:18:13;98.88;;;21.92;;
41964;SDS011;50120;53.250;8.702;2022-09-09T01:20:45;72.85;;;18.98;;
41964;SDS011;50120;53.250;8.702;2022-09-09T01:26:25;120.60;;;19.67;;
41964;SDS011;50120;53.250;8.702;2022-09-09T01:29:14;91.95;;;18.48;;
41964;SDS011;50120;53.250;8.702;2022-09-09T01:32:37;43.45;;;18.02;;
41964;SDS011;50120;53.250;8.702;2022-09-09T01:34:48;63.50;;;19.02;;
41964;SDS011;50120;53.250;8.702;2022-09-09T01:37:16;53.25;;;18.02;;
41964;SDS011;50120;53.250;8.702;2022-09-09T01:39:42;37.60;;;17.20;;
41964;SDS011;50120;53.250;8.702;2022-09-09T01:42:13;41.55;;;18.48;;
41964;SDS011;50120;53.250;8.702;2022-09-09T01:44:41;47.90;;;18.55;;
41964;SDS011;50120;53.250;8.702;2022-09-09T01:47:07;53.88;;;18.85;;
41964;SDS011;50120;53.250;8.702;2022-09-09T01:49:32;49.92;;;20.48;;
41964;SDS011;50120;53.250;8.702;2022-09-09T01:52:01;70.70;;;21.35;;
41964;SDS011;50120;53.250;8.702;2022-09-09T01:54:29;45.70;;;17.40;;
41964;SDS011;50120;53.250;8.702;2022-09-09T01:57:05;46.78;;;17.08;;
41964;SDS011;50120;53.250;8.702;2022-09-09T02:02:36;112.57;;;18.55;;
41964;SDS011;50120;53.250;8.702;2022-09-09T02:07:54;34.83;;;15.40;;
41964;SDS011;50120;53.250;8.702;2022-09-09T02:10:45;34.60;;;14.52;;
41964;SDS011;50120;53.250;8.702;2022-09-09T02:13:35;92.75;;;17.13;;
41964;SDS011;50120;53.250;8.702;2022-09-09T02:18:55;44.90;;;15.98;;
41964;SDS011;50120;53.250;8.702;2022-09-09T02:21:34;48.90;;;16.10;;
41964;SDS011;50120;53.250;8.702;2022-09-09T02:24:02;70.28;;;17.67;;
41964;SDS011;50120;53.250;8.702;2022-09-09T02:26:31;38.22;;;17.10;;
41964;SDS011;50120;53.250;8.702;2022-09-09T02:28:59;77.47;;;18.88;;
41964;SDS011;50120;53.250;8.702;2022-09-09T02:31:28;52.00;;;18.63;;
41964;SDS011;50120;53.250;8.702;2022-09-09T02:33:56;90.70;;;19.45;;
41964;SDS011;50120;53.250;8.702;2022-09-09T02:36:25;39.35;;;16.70;;
41964;SDS011;50120;53.250;8.702;2022-09-09T02:38:58;49.55;;;16.33;;
41964;SDS011;50120;53.250;8.702;2022-09-09T02:41:26;87.07;;;17.15;;
41964;SDS011;50120;53.250;8.702;2022-09-09T02:43:57;121.18;;;19.02;;
41964;SDS011;50120;53.250;8.702;2022-09-09T02:46:27;106.55;;;16.17;;
41964;SDS011;50120;53.250;8.702;2022-09-09T02:51:53;30.27;;;13.38;;
41964;SDS011;50120;53.250;8.702;2022-09-09T02:54:31;35.55;;;14.48;;
41964;SDS011;50120;53.250;8.702;2022-09-09T02:59:32;76.18;;;15.48;;
41964;SDS011;50120;53.250;8.702;2022-09-09T03:01:58;28.05;;;13.82;;
41964;SDS011;50120;53.250;8.702;2022-09-09T03:04:24;55.58;;;15.52;;
41964;SDS011;50120;53.250;8.702;2022-09-09T03:06:50;67.68;;;18.48;;
41964;SDS011;50120;53.250;8.702;2022-09-09T03:09:16;36.85;;;15.45;;
41964;SDS011;50120;53.250;8.702;2022-09-09T03:11:42;38.35;;;16.27;;
41964;SDS011;50120;53.250;8.702;2022-09-09T03:14:07;60.13;;;17.83;;
41964;SDS011;50120;53.250;8.702;2022-09-09T03:16:36;61.33;;;17.75;;
41964;SDS011;50120;53.250;8.702;2022-09-09T03:19:02;35.58;;;17.00;;
41964;SDS011;50120;53.250;8.702;2022-09-09T03:21:28;63.38;;;17.30;;
41964;SDS011;50120;53.250;8.702;2022-09-09T03:23:54;50.95;;;17.90;;
41964;SDS011;50120;53.250;8.702;2022-09-09T03:26:21;74.22;;;18.08;;
41964;SDS011;50120;53.250;8.702;2022-09-09T03:28:47;177.93;;;20.27;;
41964;SDS011;50120;53.250;8.702;2022-09-09T03:31:15;34.08;;;16.67;;
41964;SDS011;50120;53.250;8.702;2022-09-09T03:33:40;52.50;;;17.77;;
41964;SDS011;50120;53.250;8.702;2022-09-09T03:36:07;36.40;;;16.83;;
41964;SDS011;50120;53.250;8.702;2022-09-09T03:38:33;56.78;;;20.90;;
41964;SDS011;50120;53.250;8.702;2022-09-09T03:40:59;52.70;;;17.63;;
41964;SDS011;50120;53.250;8.702;2022-09-09T03:43:27;63.10;;;19.58;;
41964;SDS011;50120;53.250;8.702;2022-09-09T03:45:56;40.53;;;18.77;;
41964;SDS011;50120;53.250;8.702;2022-09-09T03:48:22;39.17;;;18.92;;
41964;SDS011;50120;53.250;8.702;2022-09-09T03:50:49;36.17;;;17.85;;
41964;SDS011;50120;53.250;8.702;2022-09-09T03:53:17;30.48;;;15.75;;
41964;SDS011;50120;53.250;8.702;2022-09-09T03:55:45;34.67;;;15.55;;
41964;SDS011;50120;53.250;8.702;2022-09-09T03:58:17;42.67;;;16.13;;
41964;SDS011;50120;53.250;8.702;2022-09-09T04:00:53;38.63;;;17.80;;
41964;SDS011;50120;53.250;8.702;2022-09-09T04:03:23;42.75;;;19.25;;
41964;SDS011;50120;53.250;8.702;2022-09-09T04:05:51;33.67;;;16.23;;
41964;SDS011;50120;53.250;8.702;2022-09-09T04:08:20;35.80;;;15.63;;
41964;SDS011;50120;53.250;8.702;2022-09-09T04:10:47;34.42;;;15.93;;
41964;SDS011;50120;53.250;8.702;2022-09-09T04:13:15;29.17;;;14.48;;
41964;SDS011;50120;53.250;8.702;2022-09-09T04:15:48;40.65;;;17.08;;
41964;SDS011;50120;53.250;8.702;2022-09-09T04:18:19;41.63;;;18.95;;
41964;SDS011;50120;53.250;8.702;2022-09-09T04:20:46;49.65;;;19.88;;
41964;SDS011;50120;53.250;8.702;2022-09-09T04:23:13;39.33;;;18.92;;
41964;SDS011;50120;53.250;8.702;2022-09-09T04:25:43;40.47;;;17.17;;
41964;SDS011;50120;53.250;8.702;2022-09-09T04:28:17;52.72;;;17.60;;
41964;SDS011;50120;53.250;8.702;2022-09-09T04:30:44;48.65;;;17.13;;
41964;SDS011;50120;53.250;8.702;2022-09-09T04:33:10;64.93;;;19.60;;
41964;SDS011;50120;53.250;8.702;2022-09-09T04:35:37;51.20;;;19.80;;
41964;SDS011;50120;53.250;8.702;2022-09-09T04:38:13;48.20;;;20.05;;
41964;SDS011;50120;53.250;8.702;2022-09-09T04:40:51;42.42;;;19.00;;
41964;SDS011;50120;53.250;8.702;2022-09-09T04:43:20;62.55;;;21.02;;
41964;SDS011;50120;53.250;8.702;2022-09-09T04:45:56;51.17;;;19.50;;
41964;SDS011;50120;53.250;8.702;2022-09-09T04:48:24;93.10;;;21.00;;
41964;SDS011;50120;53.250;8.702;2022-09-09T04:50:55;77.45;;;22.02;;
41964;SDS011;50120;53.250;8.702;2022-09-09T04:56:25;79.65;;;21.58;;
41964;SDS011;50120;53.250;8.702;2022-09-09T10:21:24;5.22;;;2.20;;
41964;SDS011;50120;53.250;8.702;2022-09-09T10:24:27;4.38;;;2.13;;
41964;SDS011;50120;53.250;8.702;2022-09-09T10:38:13;5.20;;;2.38;;
41964;SDS011;50120;53.250;8.702;2022-09-09T10:41:06;5.55;;;2.28;;
41964;SDS011;50120;53.250;8.702;2022-09-09T10:43:53;4.30;;;2.20;;
41964;SDS011;50120;53.250;8.702;2022-09-09T10:49:57;6.55;;;2.42;;
41964;SDS011;50120;53.250;8.702;2022-09-09T10:52:32;3.67;;;2.50;;
41964;SDS011;50120;53.250;8.702;2022-09-09T10:55:23;4.97;;;2.85;;
41964;SDS011;50120;53.250;8.702;2022-09-09T10:57:53;3.05;;;1.60;;
41964;SDS011;50120;53.250;8.702;2022-09-09T11:00:27;10.98;;;2.80;;
41964;SDS011;50120;53.250;8.702;2022-09-09T11:03:03;5.68;;;2.50;;
41964;SDS011;50120;53.250;8.702;2022-09-09T11:05:31;5.72;;;2.78;;
41964;SDS011;50120;53.250;8.702;2022-09-09T11:08:18;4.57;;;2.60;;
41964;SDS011;50120;53.250;8.702;2022-09-09T11:13:47;7.32;;;2.88;;
41964;SDS011;50120;53.250;8.702;2022-09-09T11:16:22;7.28;;;3.20;;
41964;SDS011;50120;53.250;8.702;2022-09-09T11:19:44;5.15;;;2.80;;
41964;SDS011;50120;53.250;8.702;2022-09-09T11:24:52;7.57;;;3.55;;
41964;SDS011;50120;53.250;8.702;2022-09-09T11:38:53;5.63;;;3.78;;
41964;SDS011;50120;53.250;8.702;2022-09-09T11:41:41;6.07;;;3.90;;
41964;SDS011;50120;53.250;8.702;2022-09-09T11:44:11;6.75;;;3.95;;
41964;SDS011;50120;53.250;8.702;2022-09-09T11:46:39;7.90;;;3.65;;
41964;SDS011;50120;53.250;8.702;2022-09-09T11:49:21;4.93;;;3.95;;
41964;SDS011;50120;53.250;8.702;2022-09-09T11:51:55;8.18;;;4.43;;
41964;SDS011;50120;53.250;8.702;2022-09-09T11:54:31;9.70;;;4.45;;
41964;SDS011;50120;53.250;8.702;2022-09-09T11:57:23;7.20;;;5.00;;
41964;SDS011;50120;53.250;8.702;2022-09-09T11:59:53;7.90;;;4.15;;
41964;SDS011;50120;53.250;8.702;2022-09-09T12:02:27;8.90;;;4.03;;
41964;SDS011;50120;53.250;8.702;2022-09-09T12:10:26;6.22;;;3.17;;
41964;SDS011;50120;53.250;8.702;2022-09-09T12:15:49;6.30;;;3.00;;
41964;SDS011;50120;53.250;8.702;2022-09-09T12:21:18;10.50;;;3.45;;
41964;SDS011;50120;53.250;8.702;2022-09-09T12:24:03;6.78;;;3.42;;
41964;SDS011;50120;53.250;8.702;2022-09-09T12:26:51;7.28;;;3.92;;
41964;SDS011;50120;53.250;8.702;2022-09-09T12:32:22;7.72;;;3.45;;
41964;SDS011;50120;53.250;8.702;2022-09-09T12:34:52;7.47;;;3.70;;
41964;SDS011;50120;53.250;8.702;2022-09-09T12:37:38;6.43;;;3.72;;
41964;SDS011;50120;53.250;8.702;2022-09-09T12:40:34;10.82;;;5.05;;
41964;SDS011;50120;53.250;8.702;2022-09-09T12:43:00;9.68;;;5.55;;
41964;SDS011;50120;53.250;8.702;2022-09-09T12:45:28;12.82;;;6.10;;
41964;SDS011;50120;53.250;8.702;2022-09-09T12:48:06;10.27;;;5.20;;
41964;SDS011;50120;53.250;8.702;2022-09-09T12:50:49;8.13;;;4.57;;
41964;SDS011;50120;53.250;8.702;2022-09-09T12:53:21;9.10;;;4.97;;
41964;SDS011;50120;53.250;8.702;2022-09-09T12:56:04;5.68;;;4.00;;
41964;SDS011;50120;53.250;8.702;2022-09-09T12:58:32;12.60;;;4.50;;
41964;SDS011;50120;53.250;8.702;2022-09-09T13:01:00;7.03;;;3.30;;
41964;SDS011;50120;53.250;8.702;2022-09-09T13:03:30;5.13;;;3.00;;
41964;SDS011;50120;53.250;8.702;2022-09-09T13:05:58;6.47;;;2.75;;
41964;SDS011;50120;53.250;8.702;2022-09-09T13:08:36;6.38;;;2.80;;
41964;SDS011;50120;53.250;8.702;2022-09-09T13:11:04;7.25;;;3.47;;
41964;SDS011;50120;53.250;8.702;2022-09-09T13:13:36;5.55;;;3.15;;
41964;SDS011;50120;53.250;8.702;2022-09-09T13:16:03;7.05;;;3.33;;
41964;SDS011;50120;53.250;8.702;2022-09-09T13:18:36;7.47;;;3.60;;
41964;SDS011;50120;53.250;8.702;2022-09-09T13:21:05;7.28;;;3.90;;
41964;SDS011;50120;53.250;8.702;2022-09-09T13:23:33;10.98;;;4.28;;
41964;SDS011;50120;53.250;8.702;2022-09-09T13:26:04;10.02;;;4.88;;
41964;SDS011;50120;53.250;8.702;2022-09-09T13:28:47;10.07;;;5.50;;
41964;SDS011;50120;53.250;8.702;2022-09-09T13:31:21;8.27;;;5.18;;
41964;SDS011;50120;53.250;8.702;2022-09-09T13:33:49;8.33;;;5.57;;
41964;SDS011;50120;53.250;8.702;2022-09-09T13:36:15;8.27;;;5.50;;
41964;SDS011;50120;53.250;8.702;2022-09-09T13:39:02;11.18;;;6.30;;
41964;SDS011;50120;53.250;8.702;2022-09-09T13:43:56;10.18;;;6.18;;
41964;SDS011;50120;53.250;8.702;2022-09-09T13:46:40;14.50;;;6.30;;
41964;SDS011;50120;53.250;8.702;2022-09-09T13:51:37;9.18;;;5.90;;
41964;SDS011;50120;53.250;8.702;2022-09-09T13:54:06;10.07;;;6.30;;
41964;SDS011;50120;53.250;8.702;2022-09-09T13:56:35;11.07;;;6.22;;
41964;SDS011;50120;53.250;8.702;2022-09-09T13:59:02;13.50;;;6.13;;
41964;SDS011;50120;53.250;8.702;2022-09-09T14:01:30;8.98;;;5.57;;
41964;SDS011;50120;53.250;8.702;2022-09-09T14:03:56;8.75;;;5.57;;
41964;SDS011;50120;53.250;8.702;2022-09-09T14:06:22;8.77;;;5.22;;
41964;SDS011;50120;53.250;8.702;2022-09-09T14:08:49;8.88;;;5.55;;
41964;SDS011;50120;53.250;8.702;2022-09-09T14:11:15;9.57;;;5.50;;
41964;SDS011;50120;53.250;8.702;2022-09-09T14:13:43;22.95;;;6.03;;
41964;SDS011;50120;53.250;8.702;2022-09-09T14:16:10;13.70;;;6.68;;
41964;SDS011;50120;53.250;8.702;2022-09-09T14:18:36;9.52;;;6.30;;
41964;SDS011;50120;53.250;8.702;2022-09-09T14:21:03;10.15;;;6.20;;
41964;SDS011;50120;53.250;8.702;2022-09-09T14:23:29;10.48;;;6.20;;
41964;SDS011;50120;53.250;8.702;2022-09-09T14:25:55;10.45;;;6.60;;
41964;SDS011;50120;53.250;8.702;2022-09-09T14:28:21;11.63;;;7.03;;
41964;SDS011;50120;53.250;8.702;2022-09-09T14:30:47;16.75;;;10.73;;
41964;SDS011;50120;53.250;8.702;2022-09-09T14:33:13;14.10;;;7.65;;
41964;SDS011;50120;53.250;8.702;2022-09-09T14:35:40;10.23;;;6.82;;
41964;SDS011;50120;53.250;8.702;2022-09-09T14:38:08;10.10;;;7.28;;
41964;SDS011;50120;53.250;8.702;2022-09-09T14:40:34;10.43;;;7.70;;
41964;SDS011;50120;53.250;8.702;2022-09-09T14:43:01;16.92;;;8.10;;
41964;SDS011;50120;53.250;8.702;2022-09-09T14:45:27;9.05;;;7.28;;
41964;SDS011;50120;53.250;8.702;2022-09-09T14:47:53;11.73;;;7.55;;
41964;SDS011;50120;53.250;8.702;2022-09-09T14:50:20;13.02;;;9.27;;
41964;SDS011;50120;53.250;8.702;2022-09-09T14:52:46;12.77;;;8.13;;
41964;SDS011;50120;53.250;8.702;2022-09-09T14:55:12;13.55;;;8.40;;
41964;SDS011;50120;53.250;8.702;2022-09-09T14:57:40;14.75;;;8.55;;
41964;SDS011;50120;53.250;8.702;2022-09-09T15:00:07;15.40;;;10.02;;
41964;SDS011;50120;53.250;8.702;2022-09-09T15:02:33;12.65;;;9.48;;
41964;SDS011;50120;53.250;8.702;2022-09-09T15:04:59;17.35;;;10.52;;
41964;SDS011;50120;53.250;8.702;2022-09-09T15:07:25;17.45;;;10.43;;
41964;SDS011;50120;53.250;8.702;2022-09-09T15:09:52;15.13;;;11.38;;
41964;SDS011;50120;53.250;8.702;2022-09-09T15:12:18;21.40;;;10.73;;
41964;SDS011;50120;53.250;8.702;2022-09-09T15:14:44;18.42;;;10.82;;
41964;SDS011;50120;53.250;8.702;2022-09-09T15:17:10;18.48;;;11.38;;
41964;SDS011;50120;53.250;8.702;2022-09-09T15:19:36;24.48;;;12.45;;
41964;SDS011;50120;53.250;8.702;2022-09-09T15:22:03;19.77;;;12.63;;
41964;SDS011;50120;53.250;8.702;2022-09-09T15:24:30;16.42;;;12.48;;
41964;SDS011;50120;53.250;8.702;2022-09-09T15:26:57;22.30;;;12.23;;
41964;SDS011;50120;53.250;8.702;2022-09-09T15:29:23;14.95;;;12.10;;
41964;SDS011;50120;53.250;8.702;2022-09-09T15:31:49;16.52;;;12.68;;
41964;SDS011;50120;53.250;8.702;2022-09-09T15:34:15;19.33;;;12.07;;
41964;SDS011;50120;53.250;8.702;2022-09-09T15:36:42;17.15;;;11.43;;
41964;SDS011;50120;53.250;8.702;2022-09-09T15:39:10;15.15;;;10.50;;
41964;SDS011;50120;53.250;8.702;2022-09-09T15:41:40;20.17;;;10.73;;
41964;SDS011;50120;53.250;8.702;2022-09-09T15:44:07;13.38;;;11.00;;
41964;SDS011;50120;53.250;8.702;2022-09-09T15:46:38;18.77;;;10.45;;
41964;SDS011;50120;53.250;8.702;2022-09-09T15:51:35;16.63;;;10.85;;
41964;SDS011;50120;53.250;8.702;2022-09-09T15:54:02;14.15;;;8.82;;
41964;SDS011;50120;53.250;8.702;2022-09-09T15:56:29;16.38;;;9.85;;
41964;SDS011;50120;53.250;8.702;2022-09-09T15:58:56;16.85;;;10.07;;
41964;SDS011;50120;53.250;8.702;2022-09-09T16:01:23;14.52;;;9.63;;
41964;SDS011;50120;53.250;8.702;2022-09-09T16:03:50;20.30;;;10.15;;
41964;SDS011;50120;53.250;8.702;2022-09-09T16:06:17;13.85;;;10.07;;
41964;SDS011;50120;53.250;8.702;2022-09-09T16:08:44;18.23;;;9.82;;
41964;SDS011;50120;53.250;8.702;2022-09-09T16:11:12;14.40;;;9.15;;
41964;SDS011;50120;53.250;8.702;2022-09-09T16:13:40;13.80;;;9.15;;
41964;SDS011;50120;53.250;8.702;2022-09-09T16:16:07;14.88;;;9.85;;
41964;SDS011;50120;53.250;8.702;2022-09-09T16:18:38;15.73;;;10.48;;
41964;SDS011;50120;53.250;8.702;2022-09-09T16:21:05;14.75;;;10.23;;
41964;SDS011;50120;53.250;8.702;2022-09-09T16:23:33;20.67;;;14.77;;
41964;SDS011;50120;53.250;8.702;2022-09-09T16:26:00;18.08;;;11.43;;
41964;SDS011;50120;53.250;8.702;2022-09-09T16:28:26;16.58;;;9.90;;
41964;SDS011;50120;53.250;8.702;2022-09-09T16:30:52;13.55;;;9.02;;
41964;SDS011;50120;53.250;8.702;2022-09-09T16:33:18;13.23;;;8.55;;
41964;SDS011;50120;53.250;8.702;2022-09-09T16:35:44;13.05;;;8.85;;
41964;SDS011;50120;53.250;8.702;2022-09-09T16:38:10;12.68;;;8.60;;
41964;SDS011;50120;53.250;8.702;2022-09-09T16:40:39;13.93;;;8.50;;
41964;SDS011;50120;53.250;8.702;2022-09-09T16:43:06;17.90;;;8.75;;
41964;SDS011;50120;53.250;8.702;2022-09-09T16:45:40;10.80;;;7.93;;
41964;SDS011;50120;53.250;8.702;2022-09-09T16:48:07;14.63;;;8.77;;
41964;SDS011;50120;53.250;8.702;2022-09-09T16:50:33;11.40;;;7.55;;
41964;SDS011;50120;53.250;8.702;2022-09-09T16:52:59;12.57;;;7.50;;
41964;SDS011;50120;53.250;8.702;2022-09-09T16:55:27;11.98;;;7.05;;
41964;SDS011;50120;53.250;8.702;2022-09-09T16:57:54;13.25;;;7.07;;
41964;SDS011;50120;53.250;8.702;2022-09-09T17:00:19;12.20;;;7.30;;
41964;SDS011;50120;53.250;8.702;2022-09-09T17:02:45;12.77;;;7.32;;
41964;SDS011;50120;53.250;8.702;2022-09-09T17:05:11;22.65;;;16.55;;
41964;SDS011;50120;53.250;8.702;2022-09-09T17:07:37;14.35;;;10.52;;
41964;SDS011;50120;53.250;8.702;2022-09-09T17:10:04;12.65;;;8.93;;
41964;SDS011;50120;53.250;8.702;2022-09-09T17:12:31;13.63;;;8.35;;
41964;SDS011;50120;53.250;8.702;2022-09-09T17:14:57;10.60;;;7.85;;
41964;SDS011;50120;53.250;8.702;2022-09-09T17:17:24;13.82;;;9.07;;
41964;SDS011;50120;53.250;8.702;2022-09-09T17:19:51;13.30;;;8.45;;
41964;SDS011;50120;53.250;8.702;2022-09-09T17:22:17;12.55;;;8.35;;
41964;SDS011;50120;53.250;8.702;2022-09-09T17:24:44;13.82;;;8.63;;
41964;SDS011;50120;53.250;8.702;2022-09-09T17:27:11;11.00;;;7.95;;
41964;SDS011;50120;53.250;8.702;2022-09-09T17:29:37;11.13;;;8.80;;
41964;SDS011;50120;53.250;8.702;2022-09-09T17:32:04;13.52;;;9.15;;
41964;SDS011;50120;53.250;8.702;2022-09-09T17:34:31;15.50;;;9.65;;
41964;SDS011;50120;53.250;8.702;2022-09-09T17:36:56;13.02;;;9.02;;
41964;SDS011;50120;53.250;8.702;2022-09-09T17:39:22;11.57;;;7.88;;
41964;SDS011;50120;53.250;8.702;2022-09-09T17:41:48;11.70;;;8.05;;
41964;SDS011;50120;53.250;8.702;2022-09-09T17:44:13;11.90;;;8.65;;
41964;SDS011;50120;53.250;8.702;2022-09-09T17:46:40;11.57;;;8.10;;
41964;SDS011;50120;53.250;8.702;2022-09-09T17:49:08;17.75;;;9.23;;
41964;SDS011;50120;53.250;8.702;2022-09-09T17:51:37;15.02;;;7.90;;
41964;SDS011;50120;53.250;8.702;2022-09-09T17:54:05;12.60;;;8.25;;
41964;SDS011;50120;53.250;8.702;2022-09-09T17:56:39;16.80;;;10.43;;
41964;SDS011;50120;53.250;8.702;2022-09-09T17:59:06;13.20;;;8.65;;
41964;SDS011;50120;53.250;8.702;2022-09-09T18:01:35;15.10;;;8.98;;
41964;SDS011;50120;53.250;8.702;2022-09-09T18:04:04;17.52;;;10.73;;
41964;SDS011;50120;53.250;8.702;2022-09-09T18:06:35;15.10;;;10.00;;
41964;SDS011;50120;53.250;8.702;2022-09-09T18:09:07;18.13;;;11.05;;
41964;SDS011;50120;53.250;8.702;2022-09-09T18:11:39;13.57;;;10.15;;
41964;SDS011;50120;53.250;8.702;2022-09-09T18:14:12;14.48;;;9.68;;
41964;SDS011;50120;53.250;8.702;2022-09-09T18:16:41;13.80;;;9.75;;
41964;SDS011;50120;53.250;8.702;2022-09-09T18:19:08;16.20;;;9.82;;
41964;SDS011;50120;53.250;8.702;2022-09-09T18:21:37;14.05;;;10.20;;
41964;SDS011;50120;53.250;8.702;2022-09-09T18:24:05;16.05;;;9.00;;
41964;SDS011;50120;53.250;8.702;2022-09-09T18:26:33;15.80;;;8.93;;
41964;SDS011;50120;53.250;8.702;2022-09-09T18:29:00;18.92;;;9.98;;
41964;SDS011;50120;53.250;8.702;2022-09-09T18:31:29;11.88;;;8.25;;
41964;SDS011;50120;53.250;8.702;2022-09-09T18:33:56;10.30;;;8.45;;
41964;SDS011;50120;53.250;8.702;2022-09-09T18:38:52;10.52;;;7.30;;
41964;SDS011;50120;53.250;8.702;2022-09-09T18:41:21;12.90;;;7.20;;
41964;SDS011;50120;53.250;8.702;2022-09-09T18:43:49;10.25;;;7.88;;
41964;SDS011;50120;53.250;8.702;2022-09-09T18:46:18;11.93;;;8.00;;
41964;SDS011;50120;53.250;8.702;2022-09-09T18:48:45;12.60;;;7.18;;
41964;SDS011;50120;53.250;8.702;2022-09-09T18:51:14;13.20;;;7.25;;
41964;SDS011;50120;53.250;8.702;2022-09-09T18:53:42;10.70;;;7.68;;
41964;SDS011;50120;53.250;8.702;2022-09-09T18:56:11;14.77;;;8.00;;
41964;SDS011;50120;53.250;8.702;2022-09-09T18:58:37;10.35;;;8.07;;
41964;SDS011;50120;53.250;8.702;2022-09-09T19:01:05;11.20;;;7.57;;
41964;SDS011;50120;53.250;8.702;2022-09-09T19:03:35;10.68;;;7.93;;
41964;SDS011;50120;53.250;8.702;2022-09-09T19:06:07;11.82;;;7.60;;
41964;SDS011;50120;53.250;8.702;2022-09-09T19:08:37;12.02;;;8.15;;
41964;SDS011;50120;53.250;8.702;2022-09-09T19:11:05;12.20;;;8.05;;
41964;SDS011;50120;53.250;8.702;2022-09-09T19:13:32;12.80;;;8.32;;
41964;SDS011;50120;53.250;8.702;2022-09-09T19:16:06;10.57;;;8.10;;
41964;SDS011;50120;53.250;8.702;2022-09-09T19:18:33;16.23;;;8.45;;
41964;SDS011;50120;53.250;8.702;2022-09-09T19:21:17;12.05;;;8.63;;
41964;SDS011;50120;53.250;8.702;2022-09-09T19:23:47;13.57;;;7.63;;
41964;SDS011;50120;53.250;8.702;2022-09-09T19:26:18;11.40;;;8.48;;
41964;SDS011;50120;53.250;8.702;2022-09-09T19:28:45;21.30;;;9.60;;
41964;SDS011;50120;53.250;8.702;2022-09-09T19:31:11;16.05;;;8.23;;
41964;SDS011;50120;53.250;8.702;2022-09-09T19:33:39;17.65;;;9.52;;
41964;SDS011;50120;53.250;8.702;2022-09-09T19:36:11;14.20;;;9.30;;
41964;SDS011;50120;53.250;8.702;2022-09-09T19:38:39;14.40;;;8.73;;
41964;SDS011;50120;53.250;8.702;2022-09-09T19:41:07;16.70;;;9.07;;
41964;SDS011;50120;53.250;8.702;2022-09-09T19:43:35;14.93;;;8.95;;
41964;SDS011;50120;53.250;8.702;2022-09-09T19:46:02;17.40;;;9.70;;
41964;SDS011;50120;53.250;8.702;2022-09-09T19:48:31;16.10;;;9.50;;
41964;SDS011;50120;53.250;8.702;2022-09-09T19:51:01;11.35;;;8.35;;
41964;SDS011;50120;53.250;8.702;2022-09-09T19:53:29;11.85;;;8.05;;
41964;SDS011;50120;53.250;8.702;2022-09-09T19:55:56;14.77;;;8.75;;
41964;SDS011;50120;53.250;8.702;2022-09-09T19:58:22;10.77;;;7.50;;
41964;SDS011;50120;53.250;8.702;2022-09-09T20:00:48;10.48;;;7.90;;
41964;SDS011;50120;53.250;8.702;2022-09-09T20:03:13;11.50;;;7.97;;
41964;SDS011;50120;53.250;8.702;2022-09-09T20:05:40;14.63;;;8.65;;
41964;SDS011;50120;53.250;8.702;2022-09-09T20:08:06;10.73;;;7.50;;
41964;SDS011;50120;53.250;8.702;2022-09-09T20:10:32;13.23;;;8.55;;
41964;SDS011;50120;53.250;8.702;2022-09-09T20:12:57;12.15;;;8.75;;
41964;SDS011;50120;53.250;8.702;2022-09-09T20:15:25;11.27;;;8.25;;
41964;SDS011;50120;53.250;8.702;2022-09-09T20:17:50;12.93;;;8.02;;
41964;SDS011;50120;53.250;8.702;2022-09-09T20:20:16;12.73;;;7.85;;
41964;SDS011;50120;53.250;8.702;2022-09-09T20:22:43;13.35;;;8.27;;
41964;SDS011;50120;53.250;8.702;2022-09-09T20:25:09;10.20;;;7.57;;
41964;SDS011;50120;53.250;8.702;2022-09-09T20:27:35;12.27;;;8.25;;
41964;SDS011;50120;53.250;8.702;2022-09-09T20:30:01;11.75;;;8.65;;
41964;SDS011;50120;53.250;8.702;2022-09-09T20:32:27;18.70;;;9.35;;
41964;SDS011;50120;53.250;8.702;2022-09-09T20:34:53;10.32;;;8.52;;
41964;SDS011;50120;53.250;8.702;2022-09-09T20:37:19;11.80;;;8.43;;
41964;SDS011;50120;53.250;8.702;2022-09-09T20:39:45;16.70;;;9.65;;
41964;SDS011;50120;53.250;8.702;2022-09-09T20:42:11;13.95;;;8.85;;
41964;SDS011;50120;53.250;8.702;2022-09-09T20:44:37;12.68;;;8.93;;
41964;SDS011;50120;53.250;8.702;2022-09-09T20:47:02;16.05;;;9.18;;
41964;SDS011;50120;53.250;8.702;2022-09-09T20:49:31;11.77;;;8.10;;
41964;SDS011;50120;53.250;8.702;2022-09-09T20:51:59;14.20;;;8.60;;
41964;SDS011;50120;53.250;8.702;2022-09-09T20:54:26;12.13;;;9.00;;
41964;SDS011;50120;53.250;8.702;2022-09-09T20:56:56;15.82;;;10.20;;
41964;SDS011;50120;53.250;8.702;2022-09-09T20:59:27;16.15;;;8.98;;
41964;SDS011;50120;53.250;8.702;2022-09-09T21:01:55;14.45;;;9.77;;
41964;SDS011;50120;53.250;8.702;2022-09-09T21:04:21;23.48;;;10.77;;
41964;SDS011;50120;53.250;8.702;2022-09-09T21:06:48;18.27;;;11.30;;
41964;SDS011;50120;53.250;8.702;2022-09-09T21:09:15;15.23;;;10.40;;
41964;SDS011;50120;53.250;8.702;2022-09-09T21:11:41;15.32;;;11.00;;
41964;SDS011;50120;53.250;8.702;2022-09-09T21:14:07;18.02;;;11.02;;
41964;SDS011;50120;53.250;8.702;2022-09-09T21:16:34;15.20;;;10.73;;
41964;SDS011;50120;53.250;8.702;2022-09-09T21:18:59;18.45;;;10.70;;
41964;SDS011;50120;53.250;8.702;2022-09-09T21:21:25;15.15;;;9.82;;
41964;SDS011;50120;53.250;8.702;2022-09-09T21:23:55;16.48;;;10.77;;
41964;SDS011;50120;53.250;8.702;2022-09-09T21:26:24;17.38;;;10.68;;
41964;SDS011;50120;53.250;8.702;2022-09-09T21:28:50;20.35;;;10.93;;
41964;SDS011;50120;53.250;8.702;2022-09-09T21:31:17;16.67;;;10.23;;
41964;SDS011;50120;53.250;8.702;2022-09-09T21:33:44;11.13;;;8.98;;
41964;SDS011;50120;53.250;8.702;2022-09-09T21:36:10;14.40;;;9.70;;
41964;SDS011;50120;53.250;8.702;2022-09-09T21:38:38;17.92;;;10.27;;
41964;SDS011;50120;53.250;8.702;2022-09-09T21:41:07;14.02;;;9.30;;
41964;SDS011;50120;53.250;8.702;2022-09-09T21:43:37;17.40;;;9.50;;
41964;SDS011;50120;53.250;8.702;2022-09-09T21:46:06;15.68;;;9.18;;
41964;SDS011;50120;53.250;8.702;2022-09-09T21:48:33;15.00;;;10.00;;
41964;SDS011;50120;53.250;8.702;2022-09-09T21:51:03;19.48;;;10.40;;